sensor_id;sensor_type;location;lat;lon;timestamp;P1;durP1;ratioP1;P2;durP2;ratioP2
44270;SDS011;29963;44.594;11.368;2023-07-29T00:01:08;3.88;;;2.70;;
44270;SDS011;29963;44.594;11.368;2023-07-29T00:03:33;5.50;;;3.15;;
44270;SDS011;29963;44.594;11.368;2023-07-29T00:05:59;4.45;;;3.15;;
44270;SDS011;29963;44.594;11.368;2023-07-29T00:08:25;7.18;;;3.03;;
44270;SDS011;29963;44.594;11.368;2023-07-29T00:10:50;11.73;;;4.18;;
44270;SDS011;29963;44.594;11.368;2023-07-29T00:13:16;5.40;;;3.45;;
44270;SDS011;29963;44.594;11.368;2023-07-29T00:15:41;7.85;;;3.80;;
44270;SDS011;29963;44.594;11.368;2023-07-29T00:18:07;5.07;;;3.47;;
44270;SDS011;29963;44.594;11.368;2023-07-29T00:20:32;5.15;;;2.63;;
44270;SDS011;29963;44.594;11.368;2023-07-29T00:22:58;5.35;;;3.13;;
44270;SDS011;29963;44.594;11.368;2023-07-29T00:25:24;3.85;;;2.80;;
44270;SDS011;29963;44.594;11.368;2023-07-29T00:27:50;5.72;;;2.95;;
44270;SDS011;29963;44.594;11.368;2023-07-29T00:30:16;5.13;;;2.90;;
44270;SDS011;29963;44.594;11.368;2023-07-29T00:32:41;5.60;;;3.35;;
44270;SDS011;29963;44.594;11.368;2023-07-29T00:35:07;4.63;;;3.20;;
44270;SDS011;29963;44.594;11.368;2023-07-29T00:37:33;3.45;;;2.83;;
44270;SDS011;29963;44.594;11.368;2023-07-29T00:39:58;6.07;;;3.13;;
44270;SDS011;29963;44.594;11.368;2023-07-29T00:42:24;3.53;;;3.00;;
44270;SDS011;29963;44.594;11.368;2023-07-29T00:44:50;6.57;;;3.08;;
44270;SDS011;29963;44.594;11.368;2023-07-29T00:47:16;8.13;;;3.00;;
44270;SDS011;29963;44.594;11.368;2023-07-29T00:49:43;3.85;;;2.97;;
44270;SDS011;29963;44.594;11.368;2023-07-29T00:52:09;6.53;;;3.53;;
44270;SDS011;29963;44.594;11.368;2023-07-29T00:54:37;5.90;;;3.25;;
44270;SDS011;29963;44.594;11.368;2023-07-29T00:57:09;4.40;;;2.58;;
44270;SDS011;29963;44.594;11.368;2023-07-29T00:59:36;7.38;;;3.35;;
44270;SDS011;29963;44.594;11.368;2023-07-29T01:02:03;7.20;;;3.15;;
44270;SDS011;29963;44.594;11.368;2023-07-29T01:04:29;4.68;;;2.90;;
44270;SDS011;29963;44.594;11.368;2023-07-29T01:12:39;5.63;;;2.90;;
44270;SDS011;29963;44.594;11.368;2023-07-29T01:15:16;5.18;;;3.20;;
44270;SDS011;29963;44.594;11.368;2023-07-29T01:18:28;5.60;;;3.33;;
44270;SDS011;29963;44.594;11.368;2023-07-29T01:20:53;4.75;;;3.78;;
44270;SDS011;29963;44.594;11.368;2023-07-29T01:23:39;6.18;;;3.92;;
44270;SDS011;29963;44.594;11.368;2023-07-29T01:26:05;3.90;;;3.20;;
44270;SDS011;29963;44.594;11.368;2023-07-29T01:28:30;4.32;;;3.22;;
44270;SDS011;29963;44.594;11.368;2023-07-29T01:30:58;4.40;;;3.38;;
44270;SDS011;29963;44.594;11.368;2023-07-29T01:33:42;5.45;;;3.00;;
44270;SDS011;29963;44.594;11.368;2023-07-29T01:36:18;5.90;;;3.65;;
44270;SDS011;29963;44.594;11.368;2023-07-29T01:38:48;6.88;;;3.25;;
44270;SDS011;29963;44.594;11.368;2023-07-29T01:41:15;6.80;;;3.83;;
44270;SDS011;29963;44.594;11.368;2023-07-29T01:43:42;5.75;;;3.47;;
44270;SDS011;29963;44.594;11.368;2023-07-29T01:46:15;4.75;;;3.45;;
44270;SDS011;29963;44.594;11.368;2023-07-29T01:48:40;7.85;;;3.60;;
44270;SDS011;29963;44.594;11.368;2023-07-29T01:51:06;7.97;;;4.05;;
44270;SDS011;29963;44.594;11.368;2023-07-29T01:53:32;5.45;;;3.70;;
44270;SDS011;29963;44.594;11.368;2023-07-29T01:55:58;4.20;;;3.42;;
44270;SDS011;29963;44.594;11.368;2023-07-29T01:58:24;16.33;;;3.35;;
44270;SDS011;29963;44.594;11.368;2023-07-29T02:00:50;5.63;;;3.72;;
44270;SDS011;29963;44.594;11.368;2023-07-29T02:03:15;3.97;;;3.25;;
44270;SDS011;29963;44.594;11.368;2023-07-29T02:05:41;4.50;;;3.58;;
44270;SDS011;29963;44.594;11.368;2023-07-29T02:08:08;6.90;;;3.67;;
44270;SDS011;29963;44.594;11.368;2023-07-29T02:10:34;5.63;;;3.55;;
44270;SDS011;29963;44.594;11.368;2023-07-29T02:13:00;8.75;;;4.10;;
44270;SDS011;29963;44.594;11.368;2023-07-29T02:15:26;7.72;;;4.18;;
44270;SDS011;29963;44.594;11.368;2023-07-29T02:17:51;6.07;;;3.55;;
44270;SDS011;29963;44.594;11.368;2023-07-29T02:20:17;8.02;;;4.00;;
44270;SDS011;29963;44.594;11.368;2023-07-29T02:22:43;5.50;;;3.67;;
44270;SDS011;29963;44.594;11.368;2023-07-29T02:25:08;6.03;;;3.88;;
44270;SDS011;29963;44.594;11.368;2023-07-29T02:27:35;7.25;;;3.70;;
44270;SDS011;29963;44.594;11.368;2023-07-29T02:30:00;5.38;;;3.92;;
44270;SDS011;29963;44.594;11.368;2023-07-29T02:32:26;5.68;;;3.60;;
44270;SDS011;29963;44.594;11.368;2023-07-29T02:34:52;5.53;;;3.72;;
44270;SDS011;29963;44.594;11.368;2023-07-29T02:37:18;5.72;;;4.20;;
44270;SDS011;29963;44.594;11.368;2023-07-29T02:39:44;7.55;;;3.95;;
44270;SDS011;29963;44.594;11.368;2023-07-29T02:42:10;5.72;;;4.35;;
44270;SDS011;29963;44.594;11.368;2023-07-29T02:44:36;7.63;;;4.47;;
44270;SDS011;29963;44.594;11.368;2023-07-29T02:47:01;5.18;;;3.55;;
44270;SDS011;29963;44.594;11.368;2023-07-29T02:49:27;11.00;;;3.72;;
44270;SDS011;29963;44.594;11.368;2023-07-29T02:51:52;4.72;;;3.65;;
44270;SDS011;29963;44.594;11.368;2023-07-29T02:54:18;5.07;;;3.55;;
44270;SDS011;29963;44.594;11.368;2023-07-29T02:56:43;4.97;;;3.42;;
44270;SDS011;29963;44.594;11.368;2023-07-29T02:59:09;6.10;;;4.47;;
44270;SDS011;29963;44.594;11.368;2023-07-29T03:01:35;7.28;;;4.25;;
44270;SDS011;29963;44.594;11.368;2023-07-29T03:04:00;7.57;;;3.38;;
44270;SDS011;29963;44.594;11.368;2023-07-29T03:06:26;9.20;;;3.80;;
44270;SDS011;29963;44.594;11.368;2023-07-29T03:08:52;6.65;;;3.40;;
44270;SDS011;29963;44.594;11.368;2023-07-29T03:11:17;5.57;;;3.78;;
44270;SDS011;29963;44.594;11.368;2023-07-29T03:13:43;3.90;;;2.78;;
44270;SDS011;29963;44.594;11.368;2023-07-29T03:16:09;7.18;;;4.28;;
44270;SDS011;29963;44.594;11.368;2023-07-29T03:18:42;5.68;;;3.55;;
44270;SDS011;29963;44.594;11.368;2023-07-29T03:21:08;7.05;;;3.60;;
44270;SDS011;29963;44.594;11.368;2023-07-29T03:23:35;5.35;;;3.55;;
44270;SDS011;29963;44.594;11.368;2023-07-29T03:26:01;5.25;;;3.60;;
44270;SDS011;29963;44.594;11.368;2023-07-29T03:28:34;8.13;;;3.95;;
44270;SDS011;29963;44.594;11.368;2023-07-29T03:31:01;4.43;;;3.50;;
44270;SDS011;29963;44.594;11.368;2023-07-29T03:33:27;6.85;;;4.30;;
44270;SDS011;29963;44.594;11.368;2023-07-29T03:35:53;5.25;;;4.03;;
44270;SDS011;29963;44.594;11.368;2023-07-29T03:38:19;5.43;;;3.65;;
44270;SDS011;29963;44.594;11.368;2023-07-29T03:40:44;4.80;;;4.15;;
44270;SDS011;29963;44.594;11.368;2023-07-29T03:43:10;4.93;;;3.53;;
44270;SDS011;29963;44.594;11.368;2023-07-29T03:45:36;7.10;;;3.70;;
44270;SDS011;29963;44.594;11.368;2023-07-29T03:48:03;7.30;;;3.60;;
44270;SDS011;29963;44.594;11.368;2023-07-29T03:50:29;5.43;;;3.70;;
44270;SDS011;29963;44.594;11.368;2023-07-29T03:52:55;6.82;;;4.00;;
44270;SDS011;29963;44.594;11.368;2023-07-29T03:55:21;8.27;;;3.22;;
44270;SDS011;29963;44.594;11.368;2023-07-29T03:57:47;4.35;;;3.47;;
44270;SDS011;29963;44.594;11.368;2023-07-29T04:00:13;7.25;;;4.32;;
44270;SDS011;29963;44.594;11.368;2023-07-29T04:02:39;3.30;;;2.92;;
44270;SDS011;29963;44.594;11.368;2023-07-29T04:05:05;6.72;;;3.53;;
44270;SDS011;29963;44.594;11.368;2023-07-29T04:07:33;6.50;;;4.47;;
44270;SDS011;29963;44.594;11.368;2023-07-29T04:09:59;4.18;;;3.25;;
44270;SDS011;29963;44.594;11.368;2023-07-29T04:12:25;4.15;;;3.75;;
44270;SDS011;29963;44.594;11.368;2023-07-29T04:14:51;4.07;;;3.65;;
44270;SDS011;29963;44.594;11.368;2023-07-29T04:17:17;4.57;;;3.58;;
44270;SDS011;29963;44.594;11.368;2023-07-29T04:19:43;4.85;;;3.80;;
44270;SDS011;29963;44.594;11.368;2023-07-29T04:22:09;4.45;;;3.13;;
44270;SDS011;29963;44.594;11.368;2023-07-29T04:24:34;6.00;;;3.55;;
44270;SDS011;29963;44.594;11.368;2023-07-29T04:27:00;5.70;;;3.38;;
44270;SDS011;29963;44.594;11.368;2023-07-29T04:29:25;6.75;;;3.63;;
44270;SDS011;29963;44.594;11.368;2023-07-29T04:31:51;5.00;;;3.13;;
44270;SDS011;29963;44.594;11.368;2023-07-29T04:34:17;6.65;;;3.47;;
44270;SDS011;29963;44.594;11.368;2023-07-29T04:36:44;8.68;;;3.63;;
44270;SDS011;29963;44.594;11.368;2023-07-29T04:39:10;7.13;;;3.40;;
44270;SDS011;29963;44.594;11.368;2023-07-29T04:41:36;6.25;;;3.38;;
44270;SDS011;29963;44.594;11.368;2023-07-29T04:44:02;4.60;;;3.40;;
44270;SDS011;29963;44.594;11.368;2023-07-29T04:46:27;4.57;;;3.00;;
44270;SDS011;29963;44.594;11.368;2023-07-29T04:48:53;4.90;;;3.78;;
44270;SDS011;29963;44.594;11.368;2023-07-29T04:51:18;5.60;;;3.55;;
44270;SDS011;29963;44.594;11.368;2023-07-29T04:53:44;7.65;;;3.20;;
44270;SDS011;29963;44.594;11.368;2023-07-29T04:56:10;4.80;;;2.92;;
44270;SDS011;29963;44.594;11.368;2023-07-29T04:58:36;4.47;;;3.35;;
44270;SDS011;29963;44.594;11.368;2023-07-29T05:01:02;4.47;;;3.60;;
44270;SDS011;29963;44.594;11.368;2023-07-29T05:03:28;3.63;;;3.05;;
44270;SDS011;29963;44.594;11.368;2023-07-29T05:05:54;3.72;;;2.83;;
44270;SDS011;29963;44.594;11.368;2023-07-29T05:08:21;5.70;;;2.95;;
44270;SDS011;29963;44.594;11.368;2023-07-29T05:10:50;3.67;;;3.15;;
44270;SDS011;29963;44.594;11.368;2023-07-29T05:13:17;5.47;;;3.35;;
44270;SDS011;29963;44.594;11.368;2023-07-29T05:15:43;4.20;;;2.88;;
44270;SDS011;29963;44.594;11.368;2023-07-29T05:18:09;5.93;;;3.55;;
44270;SDS011;29963;44.594;11.368;2023-07-29T05:20:35;4.22;;;2.80;;
44270;SDS011;29963;44.594;11.368;2023-07-29T05:23:00;6.25;;;3.63;;
44270;SDS011;29963;44.594;11.368;2023-07-29T05:25:26;5.60;;;2.95;;
44270;SDS011;29963;44.594;11.368;2023-07-29T05:27:52;6.90;;;3.38;;
44270;SDS011;29963;44.594;11.368;2023-07-29T05:30:18;3.53;;;3.22;;
44270;SDS011;29963;44.594;11.368;2023-07-29T05:32:43;8.60;;;3.47;;
44270;SDS011;29963;44.594;11.368;2023-07-29T05:35:09;3.92;;;3.35;;
44270;SDS011;29963;44.594;11.368;2023-07-29T05:37:37;5.03;;;3.65;;
44270;SDS011;29963;44.594;11.368;2023-07-29T05:40:04;2.80;;;2.60;;
44270;SDS011;29963;44.594;11.368;2023-07-29T05:42:30;6.43;;;3.17;;
44270;SDS011;29963;44.594;11.368;2023-07-29T05:44:56;5.88;;;4.32;;
44270;SDS011;29963;44.594;11.368;2023-07-29T05:47:21;7.28;;;3.45;;
44270;SDS011;29963;44.594;11.368;2023-07-29T05:49:47;6.70;;;3.63;;
44270;SDS011;29963;44.594;11.368;2023-07-29T05:52:13;7.53;;;3.50;;
44270;SDS011;29963;44.594;11.368;2023-07-29T05:54:38;3.40;;;3.10;;
44270;SDS011;29963;44.594;11.368;2023-07-29T05:57:04;6.30;;;3.92;;
44270;SDS011;29963;44.594;11.368;2023-07-29T05:59:30;4.95;;;3.20;;
44270;SDS011;29963;44.594;11.368;2023-07-29T06:01:55;5.53;;;3.53;;
44270;SDS011;29963;44.594;11.368;2023-07-29T06:04:21;7.90;;;3.30;;
44270;SDS011;29963;44.594;11.368;2023-07-29T06:06:47;5.60;;;3.22;;
44270;SDS011;29963;44.594;11.368;2023-07-29T06:09:12;5.07;;;3.22;;
44270;SDS011;29963;44.594;11.368;2023-07-29T06:11:38;11.60;;;3.83;;
44270;SDS011;29963;44.594;11.368;2023-07-29T06:14:03;9.95;;;3.75;;
44270;SDS011;29963;44.594;11.368;2023-07-29T06:16:29;5.25;;;2.83;;
44270;SDS011;29963;44.594;11.368;2023-07-29T06:18:54;3.80;;;3.45;;
44270;SDS011;29963;44.594;11.368;2023-07-29T06:21:20;4.68;;;3.03;;
44270;SDS011;29963;44.594;11.368;2023-07-29T06:23:47;4.07;;;3.20;;
44270;SDS011;29963;44.594;11.368;2023-07-29T06:26:12;6.18;;;3.15;;
44270;SDS011;29963;44.594;11.368;2023-07-29T06:28:38;5.57;;;3.03;;
44270;SDS011;29963;44.594;11.368;2023-07-29T06:31:04;3.60;;;2.63;;
44270;SDS011;29963;44.594;11.368;2023-07-29T06:33:29;8.68;;;3.00;;
44270;SDS011;29963;44.594;11.368;2023-07-29T06:35:55;4.60;;;3.30;;
44270;SDS011;29963;44.594;11.368;2023-07-29T06:38:21;3.83;;;2.60;;
44270;SDS011;29963;44.594;11.368;2023-07-29T06:40:50;8.07;;;4.25;;
44270;SDS011;29963;44.594;11.368;2023-07-29T06:43:16;5.45;;;3.08;;
44270;SDS011;29963;44.594;11.368;2023-07-29T06:45:42;4.85;;;3.90;;
44270;SDS011;29963;44.594;11.368;2023-07-29T06:48:08;5.15;;;3.33;;
44270;SDS011;29963;44.594;11.368;2023-07-29T06:50:33;3.70;;;2.88;;
44270;SDS011;29963;44.594;11.368;2023-07-29T06:52:59;7.28;;;3.88;;
44270;SDS011;29963;44.594;11.368;2023-07-29T06:55:24;6.25;;;3.13;;
44270;SDS011;29963;44.594;11.368;2023-07-29T06:57:50;8.82;;;3.33;;
44270;SDS011;29963;44.594;11.368;2023-07-29T07:00:16;5.60;;;3.60;;
44270;SDS011;29963;44.594;11.368;2023-07-29T07:02:41;5.82;;;3.08;;
44270;SDS011;29963;44.594;11.368;2023-07-29T07:05:07;5.13;;;3.38;;
44270;SDS011;29963;44.594;11.368;2023-07-29T07:07:33;7.53;;;3.60;;
44270;SDS011;29963;44.594;11.368;2023-07-29T07:09:58;4.15;;;3.35;;
44270;SDS011;29963;44.594;11.368;2023-07-29T07:12:24;4.63;;;3.40;;
44270;SDS011;29963;44.594;11.368;2023-07-29T07:14:50;4.53;;;3.22;;
44270;SDS011;29963;44.594;11.368;2023-07-29T07:17:15;3.15;;;2.85;;
44270;SDS011;29963;44.594;11.368;2023-07-29T07:19:41;6.40;;;3.17;;
44270;SDS011;29963;44.594;11.368;2023-07-29T07:22:06;8.02;;;2.92;;
44270;SDS011;29963;44.594;11.368;2023-07-29T07:24:32;5.95;;;2.92;;
44270;SDS011;29963;44.594;11.368;2023-07-29T07:26:58;3.45;;;2.50;;
44270;SDS011;29963;44.594;11.368;2023-07-29T07:29:23;3.90;;;3.17;;
44270;SDS011;29963;44.594;11.368;2023-07-29T07:31:52;3.80;;;3.03;;
44270;SDS011;29963;44.594;11.368;2023-07-29T07:34:19;4.03;;;2.50;;
44270;SDS011;29963;44.594;11.368;2023-07-29T07:36:45;2.55;;;2.28;;
44270;SDS011;29963;44.594;11.368;2023-07-29T07:39:11;4.93;;;2.35;;
44270;SDS011;29963;44.594;11.368;2023-07-29T07:41:37;4.20;;;2.63;;
44270;SDS011;29963;44.594;11.368;2023-07-29T07:44:02;2.35;;;1.95;;
44270;SDS011;29963;44.594;11.368;2023-07-29T07:46:28;5.88;;;2.58;;
44270;SDS011;29963;44.594;11.368;2023-07-29T07:48:54;2.17;;;1.98;;
44270;SDS011;29963;44.594;11.368;2023-07-29T07:51:19;6.25;;;2.70;;
44270;SDS011;29963;44.594;11.368;2023-07-29T07:53:45;4.53;;;2.60;;
44270;SDS011;29963;44.594;11.368;2023-07-29T07:56:11;4.70;;;2.13;;
44270;SDS011;29963;44.594;11.368;2023-07-29T07:58:36;4.80;;;1.92;;
44270;SDS011;29963;44.594;11.368;2023-07-29T08:01:06;3.65;;;1.95;;
44270;SDS011;29963;44.594;11.368;2023-07-29T08:03:32;6.07;;;2.25;;
44270;SDS011;29963;44.594;11.368;2023-07-29T08:05:59;3.58;;;2.20;;
44270;SDS011;29963;44.594;11.368;2023-07-29T08:08:25;3.90;;;2.33;;
44270;SDS011;29963;44.594;11.368;2023-07-29T08:10:54;4.95;;;3.17;;
44270;SDS011;29963;44.594;11.368;2023-07-29T08:13:25;3.90;;;2.60;;
44270;SDS011;29963;44.594;11.368;2023-07-29T08:15:51;3.85;;;2.63;;
44270;SDS011;29963;44.594;11.368;2023-07-29T08:18:17;4.93;;;2.78;;
44270;SDS011;29963;44.594;11.368;2023-07-29T08:20:53;3.13;;;1.88;;
44270;SDS011;29963;44.594;11.368;2023-07-29T08:23:20;4.00;;;2.45;;
44270;SDS011;29963;44.594;11.368;2023-07-29T08:25:51;3.70;;;2.15;;
44270;SDS011;29963;44.594;11.368;2023-07-29T08:28:21;4.25;;;2.67;;
44270;SDS011;29963;44.594;11.368;2023-07-29T08:30:47;2.80;;;2.30;;
44270;SDS011;29963;44.594;11.368;2023-07-29T08:33:13;2.63;;;2.05;;
44270;SDS011;29963;44.594;11.368;2023-07-29T08:35:39;4.53;;;3.00;;
44270;SDS011;29963;44.594;11.368;2023-07-29T08:38:05;4.45;;;2.10;;
44270;SDS011;29963;44.594;11.368;2023-07-29T08:40:31;3.60;;;2.38;;
44270;SDS011;29963;44.594;11.368;2023-07-29T08:42:59;5.40;;;2.47;;
44270;SDS011;29963;44.594;11.368;2023-07-29T08:45:29;6.20;;;2.67;;
44270;SDS011;29963;44.594;11.368;2023-07-29T08:47:59;3.40;;;2.38;;
44270;SDS011;29963;44.594;11.368;2023-07-29T08:50:27;4.30;;;2.35;;
44270;SDS011;29963;44.594;11.368;2023-07-29T08:52:54;4.88;;;2.75;;
44270;SDS011;29963;44.594;11.368;2023-07-29T08:55:21;2.97;;;2.60;;
44270;SDS011;29963;44.594;11.368;2023-07-29T08:57:47;6.03;;;2.40;;
44270;SDS011;29963;44.594;11.368;2023-07-29T09:00:12;3.72;;;2.50;;
44270;SDS011;29963;44.594;11.368;2023-07-29T09:02:38;4.15;;;2.60;;
44270;SDS011;29963;44.594;11.368;2023-07-29T09:05:04;4.63;;;2.42;;
44270;SDS011;29963;44.594;11.368;2023-07-29T09:07:30;3.42;;;2.50;;
44270;SDS011;29963;44.594;11.368;2023-07-29T09:09:59;5.90;;;2.60;;
44270;SDS011;29963;44.594;11.368;2023-07-29T09:12:24;4.05;;;2.58;;
44270;SDS011;29963;44.594;11.368;2023-07-29T09:14:53;2.85;;;1.83;;
44270;SDS011;29963;44.594;11.368;2023-07-29T09:17:19;2.95;;;2.03;;
44270;SDS011;29963;44.594;11.368;2023-07-29T09:19:49;2.35;;;2.15;;
44270;SDS011;29963;44.594;11.368;2023-07-29T09:22:19;2.92;;;2.40;;
44270;SDS011;29963;44.594;11.368;2023-07-29T09:24:49;3.17;;;2.40;;
44270;SDS011;29963;44.594;11.368;2023-07-29T09:27:25;5.00;;;2.17;;
44270;SDS011;29963;44.594;11.368;2023-07-29T09:29:52;2.40;;;2.13;;
44270;SDS011;29963;44.594;11.368;2023-07-29T09:32:22;3.25;;;2.25;;
44270;SDS011;29963;44.594;11.368;2023-07-29T09:34:49;2.10;;;1.90;;
44270;SDS011;29963;44.594;11.368;2023-07-29T09:37:18;2.65;;;1.90;;
44270;SDS011;29963;44.594;11.368;2023-07-29T09:39:47;3.15;;;2.10;;
44270;SDS011;29963;44.594;11.368;2023-07-29T09:42:19;4.93;;;2.30;;
44270;SDS011;29963;44.594;11.368;2023-07-29T09:44:47;5.38;;;2.88;;
44270;SDS011;29963;44.594;11.368;2023-07-29T09:47:23;3.58;;;2.10;;
44270;SDS011;29963;44.594;11.368;2023-07-29T09:49:50;2.95;;;1.70;;
44270;SDS011;29963;44.594;11.368;2023-07-29T09:52:16;2.28;;;1.65;;
44270;SDS011;29963;44.594;11.368;2023-07-29T09:54:43;5.63;;;2.80;;
44270;SDS011;29963;44.594;11.368;2023-07-29T09:57:10;4.25;;;2.13;;
44270;SDS011;29963;44.594;11.368;2023-07-29T09:59:37;3.83;;;2.05;;
44270;SDS011;29963;44.594;11.368;2023-07-29T10:02:03;3.45;;;2.15;;
44270;SDS011;29963;44.594;11.368;2023-07-29T10:04:29;2.90;;;1.90;;
44270;SDS011;29963;44.594;11.368;2023-07-29T10:06:56;7.88;;;2.22;;
44270;SDS011;29963;44.594;11.368;2023-07-29T10:09:23;4.00;;;2.33;;
44270;SDS011;29963;44.594;11.368;2023-07-29T10:11:49;4.78;;;2.95;;
44270;SDS011;29963;44.594;11.368;2023-07-29T10:14:15;2.47;;;1.90;;
44270;SDS011;29963;44.594;11.368;2023-07-29T10:16:42;3.15;;;2.80;;
44270;SDS011;29963;44.594;11.368;2023-07-29T10:19:11;2.80;;;2.08;;
44270;SDS011;29963;44.594;11.368;2023-07-29T10:21:38;2.08;;;1.80;;
44270;SDS011;29963;44.594;11.368;2023-07-29T10:24:05;5.45;;;2.83;;
44270;SDS011;29963;44.594;11.368;2023-07-29T10:26:34;6.95;;;2.70;;
44270;SDS011;29963;44.594;11.368;2023-07-29T10:29:04;2.95;;;1.83;;
44270;SDS011;29963;44.594;11.368;2023-07-29T10:31:33;3.90;;;2.17;;
44270;SDS011;29963;44.594;11.368;2023-07-29T10:34:00;5.85;;;2.65;;
44270;SDS011;29963;44.594;11.368;2023-07-29T10:36:27;3.65;;;2.15;;
44270;SDS011;29963;44.594;11.368;2023-07-29T10:38:53;4.72;;;2.80;;
44270;SDS011;29963;44.594;11.368;2023-07-29T10:41:19;4.03;;;2.40;;
44270;SDS011;29963;44.594;11.368;2023-07-29T10:43:45;5.97;;;2.10;;
44270;SDS011;29963;44.594;11.368;2023-07-29T10:46:17;2.10;;;1.85;;
44270;SDS011;29963;44.594;11.368;2023-07-29T10:48:47;5.30;;;2.10;;
44270;SDS011;29963;44.594;11.368;2023-07-29T10:51:25;3.03;;;2.20;;
44270;SDS011;29963;44.594;11.368;2023-07-29T10:56:33;5.63;;;2.63;;
44270;SDS011;29963;44.594;11.368;2023-07-29T11:01:41;2.33;;;1.65;;
44270;SDS011;29963;44.594;11.368;2023-07-29T11:15:13;3.60;;;2.67;;
44270;SDS011;29963;44.594;11.368;2023-07-29T11:17:44;3.53;;;1.90;;
44270;SDS011;29963;44.594;11.368;2023-07-29T11:20:14;4.68;;;1.85;;
44270;SDS011;29963;44.594;11.368;2023-07-29T11:22:41;3.20;;;2.47;;
44270;SDS011;29963;44.594;11.368;2023-07-29T11:25:07;3.80;;;2.35;;
44270;SDS011;29963;44.594;11.368;2023-07-29T11:27:35;4.80;;;2.60;;
44270;SDS011;29963;44.594;11.368;2023-07-29T11:30:04;7.00;;;2.60;;
44270;SDS011;29963;44.594;11.368;2023-07-29T11:32:32;4.03;;;2.03;;
44270;SDS011;29963;44.594;11.368;2023-07-29T11:35:11;2.35;;;2.10;;
44270;SDS011;29963;44.594;11.368;2023-07-29T11:37:39;3.38;;;2.38;;
44270;SDS011;29963;44.594;11.368;2023-07-29T11:40:06;2.53;;;2.10;;
44270;SDS011;29963;44.594;11.368;2023-07-29T11:42:33;3.67;;;1.63;;
44270;SDS011;29963;44.594;11.368;2023-07-29T11:45:00;5.10;;;2.25;;
44270;SDS011;29963;44.594;11.368;2023-07-29T11:47:26;4.80;;;2.35;;
44270;SDS011;29963;44.594;11.368;2023-07-29T11:49:52;2.60;;;2.03;;
44270;SDS011;29963;44.594;11.368;2023-07-29T11:52:18;4.60;;;2.38;;
44270;SDS011;29963;44.594;11.368;2023-07-29T11:54:45;6.15;;;2.13;;
44270;SDS011;29963;44.594;11.368;2023-07-29T11:57:12;2.92;;;2.20;;
44270;SDS011;29963;44.594;11.368;2023-07-29T11:59:39;3.78;;;2.35;;
44270;SDS011;29963;44.594;11.368;2023-07-29T12:02:10;4.65;;;2.53;;
44270;SDS011;29963;44.594;11.368;2023-07-29T12:04:38;3.08;;;2.10;;
44270;SDS011;29963;44.594;11.368;2023-07-29T12:07:04;4.35;;;1.80;;
44270;SDS011;29963;44.594;11.368;2023-07-29T12:09:31;5.05;;;1.73;;
44270;SDS011;29963;44.594;11.368;2023-07-29T12:11:56;4.03;;;2.85;;
44270;SDS011;29963;44.594;11.368;2023-07-29T12:14:25;5.30;;;2.53;;
44270;SDS011;29963;44.594;11.368;2023-07-29T12:16:54;2.78;;;2.17;;
44270;SDS011;29963;44.594;11.368;2023-07-29T12:19:20;4.45;;;1.80;;
44270;SDS011;29963;44.594;11.368;2023-07-29T12:21:47;3.30;;;2.65;;
44270;SDS011;29963;44.594;11.368;2023-07-29T12:24:14;2.95;;;1.98;;
44270;SDS011;29963;44.594;11.368;2023-07-29T12:26:40;3.35;;;1.92;;
44270;SDS011;29963;44.594;11.368;2023-07-29T12:29:13;3.97;;;2.30;;
44270;SDS011;29963;44.594;11.368;2023-07-29T12:31:39;2.67;;;1.88;;
44270;SDS011;29963;44.594;11.368;2023-07-29T12:34:05;4.15;;;1.90;;
44270;SDS011;29963;44.594;11.368;2023-07-29T12:36:44;3.13;;;2.20;;
44270;SDS011;29963;44.594;11.368;2023-07-29T12:39:24;2.47;;;2.10;;
44270;SDS011;29963;44.594;11.368;2023-07-29T12:41:54;3.20;;;2.60;;
44270;SDS011;29963;44.594;11.368;2023-07-29T12:44:22;2.60;;;1.65;;
44270;SDS011;29963;44.594;11.368;2023-07-29T12:46:48;6.97;;;2.55;;
44270;SDS011;29963;44.594;11.368;2023-07-29T12:49:14;3.45;;;2.03;;
44270;SDS011;29963;44.594;11.368;2023-07-29T12:51:40;3.13;;;1.95;;
44270;SDS011;29963;44.594;11.368;2023-07-29T12:54:05;2.70;;;1.92;;
44270;SDS011;29963;44.594;11.368;2023-07-29T12:56:31;4.15;;;1.75;;
44270;SDS011;29963;44.594;11.368;2023-07-29T12:58:58;2.63;;;2.30;;
44270;SDS011;29963;44.594;11.368;2023-07-29T13:01:24;2.78;;;2.10;;
44270;SDS011;29963;44.594;11.368;2023-07-29T13:03:50;8.45;;;2.97;;
44270;SDS011;29963;44.594;11.368;2023-07-29T13:06:16;14.65;;;4.63;;
44270;SDS011;29963;44.594;11.368;2023-07-29T13:08:42;4.88;;;2.35;;
44270;SDS011;29963;44.594;11.368;2023-07-29T13:11:09;3.60;;;2.15;;
44270;SDS011;29963;44.594;11.368;2023-07-29T13:13:34;5.47;;;2.88;;
44270;SDS011;29963;44.594;11.368;2023-07-29T13:16:00;7.35;;;2.50;;
44270;SDS011;29963;44.594;11.368;2023-07-29T13:18:26;4.30;;;2.03;;
44270;SDS011;29963;44.594;11.368;2023-07-29T13:20:52;2.60;;;1.77;;
44270;SDS011;29963;44.594;11.368;2023-07-29T13:23:17;2.33;;;1.98;;
44270;SDS011;29963;44.594;11.368;2023-07-29T13:25:43;3.25;;;2.50;;
44270;SDS011;29963;44.594;11.368;2023-07-29T13:28:09;3.03;;;2.38;;
44270;SDS011;29963;44.594;11.368;2023-07-29T13:30:36;2.90;;;1.73;;
44270;SDS011;29963;44.594;11.368;2023-07-29T13:33:01;2.22;;;1.98;;
44270;SDS011;29963;44.594;11.368;2023-07-29T13:35:28;4.03;;;2.47;;
44270;SDS011;29963;44.594;11.368;2023-07-29T13:37:55;5.88;;;2.30;;
44270;SDS011;29963;44.594;11.368;2023-07-29T13:40:21;2.60;;;2.13;;
44270;SDS011;29963;44.594;11.368;2023-07-29T13:42:46;4.35;;;1.98;;
44270;SDS011;29963;44.594;11.368;2023-07-29T13:45:12;2.92;;;2.00;;
44270;SDS011;29963;44.594;11.368;2023-07-29T13:47:37;3.85;;;2.03;;
44270;SDS011;29963;44.594;11.368;2023-07-29T13:50:03;2.70;;;1.63;;
44270;SDS011;29963;44.594;11.368;2023-07-29T13:52:29;2.80;;;2.00;;
44270;SDS011;29963;44.594;11.368;2023-07-29T13:54:55;2.90;;;1.92;;
44270;SDS011;29963;44.594;11.368;2023-07-29T13:57:20;2.25;;;2.05;;
44270;SDS011;29963;44.594;11.368;2023-07-29T13:59:46;2.75;;;1.58;;
44270;SDS011;29963;44.594;11.368;2023-07-29T14:02:11;2.70;;;1.95;;
44270;SDS011;29963;44.594;11.368;2023-07-29T14:04:37;2.92;;;1.83;;
44270;SDS011;29963;44.594;11.368;2023-07-29T14:07:03;3.85;;;2.05;;
44270;SDS011;29963;44.594;11.368;2023-07-29T14:09:29;3.65;;;2.10;;
44270;SDS011;29963;44.594;11.368;2023-07-29T14:11:54;2.65;;;2.00;;
44270;SDS011;29963;44.594;11.368;2023-07-29T14:14:20;3.47;;;2.33;;
44270;SDS011;29963;44.594;11.368;2023-07-29T14:16:46;3.28;;;1.80;;
44270;SDS011;29963;44.594;11.368;2023-07-29T14:19:12;6.85;;;2.20;;
44270;SDS011;29963;44.594;11.368;2023-07-29T14:21:37;2.00;;;1.77;;
44270;SDS011;29963;44.594;11.368;2023-07-29T14:24:03;2.67;;;1.80;;
44270;SDS011;29963;44.594;11.368;2023-07-29T14:26:29;2.83;;;2.30;;
44270;SDS011;29963;44.594;11.368;2023-07-29T14:28:54;4.45;;;2.67;;
44270;SDS011;29963;44.594;11.368;2023-07-29T14:31:20;5.30;;;2.75;;
44270;SDS011;29963;44.594;11.368;2023-07-29T14:33:47;4.60;;;2.58;;
44270;SDS011;29963;44.594;11.368;2023-07-29T14:36:14;4.78;;;2.55;;
44270;SDS011;29963;44.594;11.368;2023-07-29T14:38:40;3.17;;;1.95;;
44270;SDS011;29963;44.594;11.368;2023-07-29T14:41:06;2.38;;;1.80;;
44270;SDS011;29963;44.594;11.368;2023-07-29T14:43:31;2.80;;;2.40;;
44270;SDS011;29963;44.594;11.368;2023-07-29T14:45:57;4.90;;;2.33;;
44270;SDS011;29963;44.594;11.368;2023-07-29T14:48:23;2.72;;;2.08;;
44270;SDS011;29963;44.594;11.368;2023-07-29T14:50:48;5.05;;;2.38;;
44270;SDS011;29963;44.594;11.368;2023-07-29T14:53:14;5.72;;;2.50;;